sensor_id;sensor_type;location;lat;lon;timestamp;pressure;altitude;pressure_sealevel;temperature;humidity
74594;BME280;63097;51.872;4.460;2023-02-13T00:01:42;103956.56;;;7.00;79.15
74594;BME280;63097;51.872;4.460;2023-02-13T00:04:07;103966.28;;;7.13;79.00
74594;BME280;63097;51.872;4.460;2023-02-13T00:06:33;103950.84;;;7.11;78.85
74594;BME280;63097;51.872;4.460;2023-02-13T00:08:58;103961.19;;;7.09;78.75
74594;BME280;63097;51.872;4.460;2023-02-13T00:11:23;103953.91;;;7.08;79.18
74594;BME280;63097;51.872;4.460;2023-02-13T00:13:49;103955.81;;;7.07;79.10
74594;BME280;63097;51.872;4.460;2023-02-13T00:16:14;103949.38;;;7.07;78.99
74594;BME280;63097;51.872;4.460;2023-02-13T00:18:39;103941.56;;;7.02;79.17
74594;BME280;63097;51.872;4.460;2023-02-13T00:21:08;103953.31;;;7.14;79.03
74594;BME280;63097;51.872;4.460;2023-02-13T00:23:35;103952.88;;;7.09;78.95
74594;BME280;63097;51.872;4.460;2023-02-13T00:26:05;103949.72;;;7.04;79.27
74594;BME280;63097;51.872;4.460;2023-02-13T00:28:30;103947.81;;;7.04;78.90
74594;BME280;63097;51.872;4.460;2023-02-13T00:31:02;103952.16;;;7.07;79.49
74594;BME280;63097;51.872;4.460;2023-02-13T00:33:27;103941.63;;;6.93;79.94
74594;BME280;63097;51.872;4.460;2023-02-13T00:36:01;103947.09;;;7.02;79.10
74594;BME280;63097;51.872;4.460;2023-02-13T00:38:28;103948.66;;;7.05;79.58
74594;BME280;63097;51.872;4.460;2023-02-13T00:40:54;103953.34;;;7.04;79.18
74594;BME280;63097;51.872;4.460;2023-02-13T00:43:19;103945.25;;;6.93;79.89
74594;BME280;63097;51.872;4.460;2023-02-13T00:45:44;103940.84;;;7.00;79.83
74594;BME280;63097;51.872;4.460;2023-02-13T00:48:10;103936.19;;;7.01;79.78
74594;BME280;63097;51.872;4.460;2023-02-13T00:50:35;103938.47;;;7.05;79.55
74594;BME280;63097;51.872;4.460;2023-02-13T00:53:00;103943.78;;;6.99;79.84
74594;BME280;63097;51.872;4.460;2023-02-13T00:55:26;103932.94;;;7.05;79.45
74594;BME280;63097;51.872;4.460;2023-02-13T00:57:51;103928.94;;;6.90;80.12
74594;BME280;63097;51.872;4.460;2023-02-13T01:00:16;103924.13;;;6.92;80.12
74594;BME280;63097;51.872;4.460;2023-02-13T01:02:42;103934.59;;;6.98;80.06
74594;BME280;63097;51.872;4.460;2023-02-13T01:05:07;103929.94;;;6.99;79.99
74594;BME280;63097;51.872;4.460;2023-02-13T01:07:32;103943.84;;;7.07;79.60
74594;BME280;63097;51.872;4.460;2023-02-13T01:09:58;103931.22;;;7.04;79.90
74594;BME280;63097;51.872;4.460;2023-02-13T01:12:23;103933.66;;;7.07;79.93
74594;BME280;63097;51.872;4.460;2023-02-13T01:14:48;103932.78;;;7.07;79.39
74594;BME280;63097;51.872;4.460;2023-02-13T01:17:15;103939.56;;;6.95;80.08
74594;BME280;63097;51.872;4.460;2023-02-13T01:19:40;103935.16;;;7.02;80.24
74594;BME280;63097;51.872;4.460;2023-02-13T01:22:07;103928.81;;;6.92;80.62
74594;BME280;63097;51.872;4.460;2023-02-13T01:24:33;103931.66;;;7.00;80.45
74594;BME280;63097;51.872;4.460;2023-02-13T01:26:58;103934.19;;;6.93;80.14
74594;BME280;63097;51.872;4.460;2023-02-13T01:29:23;103926.06;;;6.92;80.57
74594;BME280;63097;51.872;4.460;2023-02-13T01:31:49;103928.09;;;6.90;80.52
74594;BME280;63097;51.872;4.460;2023-02-13T01:34:14;103923.69;;;6.97;79.97
74594;BME280;63097;51.872;4.460;2023-02-13T01:36:39;103919.31;;;6.94;80.13
74594;BME280;63097;51.872;4.460;2023-02-13T01:39:04;103916.44;;;7.13;79.50
74594;BME280;63097;51.872;4.460;2023-02-13T01:41:30;103926.53;;;7.05;79.79
74594;BME280;63097;51.872;4.460;2023-02-13T01:43:57;103925.13;;;7.01;79.95
74594;BME280;63097;51.872;4.460;2023-02-13T01:46:37;103928.44;;;7.04;80.01
74594;BME280;63097;51.872;4.460;2023-02-13T01:49:10;103920.34;;;6.93;80.06
74594;BME280;63097;51.872;4.460;2023-02-13T01:51:37;103913.69;;;6.86;79.97
74594;BME280;63097;51.872;4.460;2023-02-13T01:54:10;103917.63;;;7.11;79.43
74594;BME280;63097;51.872;4.460;2023-02-13T01:56:45;103912.78;;;6.95;80.30
74594;BME280;63097;51.872;4.460;2023-02-13T01:59:20;103925.53;;;7.06;79.75
74594;BME280;63097;51.872;4.460;2023-02-13T02:01:49;103917.22;;;7.06;79.95
74594;BME280;63097;51.872;4.460;2023-02-13T02:04:40;103920.34;;;6.93;80.22
74594;BME280;63097;51.872;4.460;2023-02-13T02:07:12;103913.63;;;6.96;80.77
74594;BME280;63097;51.872;4.460;2023-02-13T02:09:40;103898.72;;;6.79;80.65
74594;BME280;63097;51.872;4.460;2023-02-13T02:12:23;103918.16;;;6.97;80.40
74594;BME280;63097;51.872;4.460;2023-02-13T02:14:50;103913.06;;;6.92;80.79
74594;BME280;63097;51.872;4.460;2023-02-13T02:17:17;103919.16;;;6.96;80.54
74594;BME280;63097;51.872;4.460;2023-02-13T02:19:53;103920.75;;;6.98;80.65
74594;BME280;63097;51.872;4.460;2023-02-13T02:25:22;103913.72;;;7.04;80.16
74594;BME280;63097;51.872;4.460;2023-02-13T02:30:54;103909.00;;;6.87;80.83
74594;BME280;63097;51.872;4.460;2023-02-13T02:36:44;103908.16;;;6.86;81.24
74594;BME280;63097;51.872;4.460;2023-02-13T02:39:25;103905.25;;;6.88;81.20
74594;BME280;63097;51.872;4.460;2023-02-13T02:47:13;103906.91;;;6.98;80.54
74594;BME280;63097;51.872;4.460;2023-02-13T02:49:44;103906.19;;;6.96;80.85
74594;BME280;63097;51.872;4.460;2023-02-13T02:52:17;103905.09;;;6.89;81.04
74594;BME280;63097;51.872;4.460;2023-02-13T02:54:49;103903.44;;;6.96;81.17
74594;BME280;63097;51.872;4.460;2023-02-13T02:57:20;103890.78;;;6.94;80.90
74594;BME280;63097;51.872;4.460;2023-02-13T02:59:47;103891.00;;;6.83;81.56
74594;BME280;63097;51.872;4.460;2023-02-13T03:02:14;103890.06;;;6.92;81.16
74594;BME280;63097;51.872;4.460;2023-02-13T03:04:44;103894.94;;;6.80;81.59
74594;BME280;63097;51.872;4.460;2023-02-13T03:07:15;103889.34;;;6.90;81.39
74594;BME280;63097;51.872;4.460;2023-02-13T03:09:44;103888.16;;;6.92;81.02
74594;BME280;63097;51.872;4.460;2023-02-13T03:12:13;103890.06;;;6.92;81.21
74594;BME280;63097;51.872;4.460;2023-02-13T03:14:39;103883.78;;;6.99;81.12
74594;BME280;63097;51.872;4.460;2023-02-13T03:17:09;103888.03;;;6.94;80.79
74594;BME280;63097;51.872;4.460;2023-02-13T03:23:22;103887.59;;;6.89;81.60
74594;BME280;63097;51.872;4.460;2023-02-13T03:28:27;103881.50;;;6.85;81.91
74594;BME280;63097;51.872;4.460;2023-02-13T03:36:33;103872.81;;;6.80;81.92
74594;BME280;63097;51.872;4.460;2023-02-13T03:39:18;103877.41;;;6.89;81.70
74594;BME280;63097;51.872;4.460;2023-02-13T03:42:05;103874.41;;;6.83;81.99
74594;BME280;63097;51.872;4.460;2023-02-13T03:44:43;103880.88;;;6.74;82.13
74594;BME280;63097;51.872;4.460;2023-02-13T03:47:13;103877.97;;;6.93;81.74
74594;BME280;63097;51.872;4.460;2023-02-13T03:49:48;103872.31;;;6.85;81.58
74594;BME280;63097;51.872;4.460;2023-02-13T03:52:21;103874.81;;;6.88;81.70
74594;BME280;63097;51.872;4.460;2023-02-13T03:54:59;103873.38;;;6.84;81.95
74594;BME280;63097;51.872;4.460;2023-02-13T03:57:26;103872.25;;;6.77;82.43
74594;BME280;63097;51.872;4.460;2023-02-13T03:59:54;103868.19;;;6.71;82.74
74594;BME280;63097;51.872;4.460;2023-02-13T04:02:24;103865.28;;;6.73;82.24
74594;BME280;63097;51.872;4.460;2023-02-13T04:05:01;103867.16;;;6.72;82.68
74594;BME280;63097;51.872;4.460;2023-02-13T04:07:29;103864.41;;;6.72;82.68
74594;BME280;63097;51.872;4.460;2023-02-13T04:09:59;103864.97;;;6.76;82.85
74594;BME280;63097;51.872;4.460;2023-02-13T04:12:40;103863.94;;;6.77;82.68
74594;BME280;63097;51.872;4.460;2023-02-13T04:15:20;103869.94;;;6.72;82.76
74594;BME280;63097;51.872;4.460;2023-02-13T04:17:53;103877.78;;;6.77;82.95
74594;BME280;63097;51.872;4.460;2023-02-13T04:20:19;103869.94;;;6.72;83.05
74594;BME280;63097;51.872;4.460;2023-02-13T04:22:46;103871.69;;;6.73;82.74
74594;BME280;63097;51.872;4.460;2023-02-13T04:25:14;103856.97;;;6.73;83.00
74594;BME280;63097;51.872;4.460;2023-02-13T04:27:40;103869.81;;;6.74;82.83
74594;BME280;63097;51.872;4.460;2023-02-13T04:30:07;103870.91;;;6.81;82.94
74594;BME280;63097;51.872;4.460;2023-02-13T04:32:32;103877.94;;;6.75;83.01
74594;BME280;63097;51.872;4.460;2023-02-13T04:34:57;103873.97;;;6.78;82.91
74594;BME280;63097;51.872;4.460;2023-02-13T04:37:23;103872.41;;;6.75;83.15
74594;BME280;63097;51.872;4.460;2023-02-13T04:39:48;103870.09;;;6.71;83.21
74594;BME280;63097;51.872;4.460;2023-02-13T04:42:13;103871.94;;;6.80;83.12
74594;BME280;63097;51.872;4.460;2023-02-13T04:44:39;103870.50;;;6.76;82.98
74594;BME280;63097;51.872;4.460;2023-02-13T04:47:04;103868.44;;;6.78;83.20
74594;BME280;63097;51.872;4.460;2023-02-13T04:49:29;103868.53;;;6.68;83.40
74594;BME280;63097;51.872;4.460;2023-02-13T04:51:54;103866.22;;;6.81;83.12
74594;BME280;63097;51.872;4.460;2023-02-13T04:54:20;103852.63;;;6.70;83.37
74594;BME280;63097;51.872;4.460;2023-02-13T04:56:45;103862.19;;;6.76;83.44
74594;BME280;63097;51.872;4.460;2023-02-13T04:59:10;103873.41;;;6.74;83.63
74594;BME280;63097;51.872;4.460;2023-02-13T05:01:36;103859.75;;;6.73;83.88
74594;BME280;63097;51.872;4.460;2023-02-13T05:04:01;103863.00;;;6.68;83.71
74594;BME280;63097;51.872;4.460;2023-02-13T05:06:26;103851.34;;;6.65;84.03
74594;BME280;63097;51.872;4.460;2023-02-13T05:08:52;103849.84;;;6.70;83.88
74594;BME280;63097;51.872;4.460;2023-02-13T05:11:17;103852.47;;;6.72;83.92
74594;BME280;63097;51.872;4.460;2023-02-13T05:13:42;103854.94;;;6.75;84.04
74594;BME280;63097;51.872;4.460;2023-02-13T05:16:07;103848.44;;;6.66;84.10
74594;BME280;63097;51.872;4.460;2023-02-13T05:18:33;103852.00;;;6.76;83.76
74594;BME280;63097;51.872;4.460;2023-02-13T05:20:58;103856.66;;;6.76;83.97
74594;BME280;63097;51.872;4.460;2023-02-13T05:23:23;103850.16;;;6.67;84.07
74594;BME280;63097;51.872;4.460;2023-02-13T05:25:49;103852.78;;;6.69;84.76
74594;BME280;63097;51.872;4.460;2023-02-13T05:28:15;103857.59;;;6.67;84.63
74594;BME280;63097;51.872;4.460;2023-02-13T05:30:40;103858.63;;;6.66;84.70
74594;BME280;63097;51.872;4.460;2023-02-13T05:33:05;103855.38;;;6.70;84.52
74594;BME280;63097;51.872;4.460;2023-02-13T05:35:31;103852.16;;;6.75;84.33
74594;BME280;63097;51.872;4.460;2023-02-13T05:37:56;103861.91;;;6.79;84.14
74594;BME280;63097;51.872;4.460;2023-02-13T05:40:21;103851.94;;;6.68;84.56
74594;BME280;63097;51.872;4.460;2023-02-13T05:42:47;103848.72;;;6.63;84.74
74594;BME280;63097;51.872;4.460;2023-02-13T05:45:12;103858.63;;;6.66;84.92
74594;BME280;63097;51.872;4.460;2023-02-13T05:47:37;103855.28;;;6.62;85.15
74594;BME280;63097;51.872;4.460;2023-02-13T05:50:03;103845.25;;;6.61;85.22
74594;BME280;63097;51.872;4.460;2023-02-13T05:52:28;103847.41;;;6.67;85.16
74594;BME280;63097;51.872;4.460;2023-02-13T05:54:54;103847.41;;;6.67;85.00
74594;BME280;63097;51.872;4.460;2023-02-13T05:57:19;103840.44;;;6.63;85.24
74594;BME280;63097;51.872;4.460;2023-02-13T05:59:44;103849.38;;;6.57;85.50
74594;BME280;63097;51.872;4.460;2023-02-13T06:02:10;103847.88;;;6.63;85.51
74594;BME280;63097;51.872;4.460;2023-02-13T06:04:35;103858.34;;;6.59;85.61
74594;BME280;63097;51.872;4.460;2023-02-13T06:07:00;103846.13;;;6.62;85.35
74594;BME280;63097;51.872;4.460;2023-02-13T06:09:26;103850.00;;;6.69;85.62
74594;BME280;63097;51.872;4.460;2023-02-13T06:11:51;103844.31;;;6.70;85.18
74594;BME280;63097;51.872;4.460;2023-02-13T06:14:16;103845.75;;;6.74;85.46
74594;BME280;63097;51.872;4.460;2023-02-13T06:16:41;103849.56;;;6.73;85.36
74594;BME280;63097;51.872;4.460;2023-02-13T06:19:07;103847.50;;;6.75;85.08
74594;BME280;63097;51.872;4.460;2023-02-13T06:21:32;103839.22;;;6.75;85.18
74594;BME280;63097;51.872;4.460;2023-02-13T06:23:58;103840.28;;;6.65;85.87
74594;BME280;63097;51.872;4.460;2023-02-13T06:26:23;103841.47;;;6.62;85.72
74594;BME280;63097;51.872;4.460;2023-02-13T06:28:48;103849.59;;;6.64;85.65
74594;BME280;63097;51.872;4.460;2023-02-13T06:31:14;103854.38;;;6.71;85.71
74594;BME280;63097;51.872;4.460;2023-02-13T06:33:39;103845.69;;;6.66;85.55
74594;BME280;63097;51.872;4.460;2023-02-13T06:36:05;103846.06;;;6.71;85.82
74594;BME280;63097;51.872;4.460;2023-02-13T06:38:30;103850.50;;;6.64;86.00
74594;BME280;63097;51.872;4.460;2023-02-13T06:40:59;103845.59;;;6.76;85.41
74594;BME280;63097;51.872;4.460;2023-02-13T06:43:25;103854.19;;;6.55;86.04
74594;BME280;63097;51.872;4.460;2023-02-13T06:45:50;103850.28;;;6.48;86.33
74594;BME280;63097;51.872;4.460;2023-02-13T06:48:15;103847.56;;;6.39;86.46
74594;BME280;63097;51.872;4.460;2023-02-13T06:50:41;103853.31;;;6.18;87.35
74594;BME280;63097;51.872;4.460;2023-02-13T06:53:06;103859.03;;;6.07;88.23
74594;BME280;63097;51.872;4.460;2023-02-13T06:55:31;103856.50;;;6.13;88.20
74594;BME280;63097;51.872;4.460;2023-02-13T06:57:57;103864.81;;;6.13;88.05
74594;BME280;63097;51.872;4.460;2023-02-13T07:00:22;103870.06;;;6.17;88.05
74594;BME280;63097;51.872;4.460;2023-02-13T07:02:47;103868.78;;;6.01;88.52
74594;BME280;63097;51.872;4.460;2023-02-13T07:05:13;103874.06;;;5.95;88.50
74594;BME280;63097;51.872;4.460;2023-02-13T07:07:40;103875.53;;;5.89;88.89
74594;BME280;63097;51.872;4.460;2023-02-13T07:10:08;103872.16;;;5.76;89.38
74594;BME280;63097;51.872;4.460;2023-02-13T07:12:34;103876.50;;;5.79;89.57
74594;BME280;63097;51.872;4.460;2023-02-13T07:15:00;103875.34;;;5.62;90.11
74594;BME280;63097;51.872;4.460;2023-02-13T07:17:25;103879.16;;;5.61;90.44
74594;BME280;63097;51.872;4.460;2023-02-13T07:19:50;103887.72;;;5.39;90.17
74594;BME280;63097;51.872;4.460;2023-02-13T07:22:16;103888.59;;;5.30;90.54
74594;BME280;63097;51.872;4.460;2023-02-13T07:24:41;103882.94;;;5.13;90.62
74594;BME280;63097;51.872;4.460;2023-02-13T07:27:06;103892.34;;;5.00;90.83
74594;BME280;63097;51.872;4.460;2023-02-13T07:29:31;103883.31;;;4.89;91.10
74594;BME280;63097;51.872;4.460;2023-02-13T07:31:57;103888.22;;;4.85;91.68
74594;BME280;63097;51.872;4.460;2023-02-13T07:34:22;103882.28;;;4.80;91.80
74594;BME280;63097;51.872;4.460;2023-02-13T07:36:47;103873.56;;;4.75;91.64
74594;BME280;63097;51.872;4.460;2023-02-13T07:39:13;103877.06;;;4.96;92.32
74594;BME280;63097;51.872;4.460;2023-02-13T07:41:39;103879.25;;;4.93;92.09
74594;BME280;63097;51.872;4.460;2023-02-13T07:44:04;103885.09;;;4.99;92.10
74594;BME280;63097;51.872;4.460;2023-02-13T07:46:29;103889.72;;;4.99;92.43
74594;BME280;63097;51.872;4.460;2023-02-13T07:48:55;103885.81;;;5.11;92.15
74594;BME280;63097;51.872;4.460;2023-02-13T07:51:20;103879.28;;;5.41;91.81
74594;BME280;63097;51.872;4.460;2023-02-13T07:53:45;103886.72;;;5.40;91.83
74594;BME280;63097;51.872;4.460;2023-02-13T07:56:11;103880.75;;;5.45;91.71
74594;BME280;63097;51.872;4.460;2023-02-13T07:58:36;103892.53;;;5.47;91.44
74594;BME280;63097;51.872;4.460;2023-02-13T08:01:10;103890.19;;;5.61;91.34
74594;BME280;63097;51.872;4.460;2023-02-13T08:03:35;103895.88;;;5.60;90.49
74594;BME280;63097;51.872;4.460;2023-02-13T08:06:01;103891.97;;;5.53;90.36
74594;BME280;63097;51.872;4.460;2023-02-13T08:08:27;103892.81;;;5.53;90.43
74594;BME280;63097;51.872;4.460;2023-02-13T08:10:52;103895.13;;;5.67;90.86
74594;BME280;63097;51.872;4.460;2023-02-13T08:13:18;103895.56;;;5.82;90.49
74594;BME280;63097;51.872;4.460;2023-02-13T08:15:43;103900.19;;;5.81;89.99
74594;BME280;63097;51.872;4.460;2023-02-13T08:18:09;103895.13;;;5.96;89.83
74594;BME280;63097;51.872;4.460;2023-02-13T08:20:35;103895.13;;;5.86;89.72
74594;BME280;63097;51.872;4.460;2023-02-13T08:23:09;103901.22;;;5.90;89.99
74594;BME280;63097;51.872;4.460;2023-02-13T08:25:36;103895.66;;;6.19;89.06
74594;BME280;63097;51.872;4.460;2023-02-13T08:28:02;103895.56;;;6.38;87.89
74594;BME280;63097;51.872;4.460;2023-02-13T08:30:27;103900.47;;;6.17;88.34
74594;BME280;63097;51.872;4.460;2023-02-13T08:32:52;103898.41;;;6.19;88.65
74594;BME280;63097;51.872;4.460;2023-02-13T08:35:18;103903.78;;;6.20;88.67
74594;BME280;63097;51.872;4.460;2023-02-13T08:37:43;103904.75;;;6.38;88.01
74594;BME280;63097;51.872;4.460;2023-02-13T08:40:08;103903.69;;;6.49;87.54
74594;BME280;63097;51.872;4.460;2023-02-13T08:42:34;103900.94;;;6.39;87.79
74594;BME280;63097;51.872;4.460;2023-02-13T08:44:59;103900.81;;;6.41;87.83
74594;BME280;63097;51.872;4.460;2023-02-13T08:47:24;103903.28;;;6.34;88.18
74594;BME280;63097;51.872;4.460;2023-02-13T08:49:50;103904.41;;;6.51;87.71
74594;BME280;63097;51.872;4.460;2023-02-13T08:52:15;103906.16;;;6.52;87.48
74594;BME280;63097;51.872;4.460;2023-02-13T08:54:40;103904.56;;;6.49;87.72
74594;BME280;63097;51.872;4.460;2023-02-13T08:57:06;103910.69;;;6.70;86.97
74594;BME280;63097;51.872;4.460;2023-02-13T08:59:31;103909.09;;;6.77;86.74
74594;BME280;63097;51.872;4.460;2023-02-13T09:01:56;103915.19;;;6.81;86.70
74594;BME280;63097;51.872;4.460;2023-02-13T09:04:22;103914.56;;;7.14;85.74
74594;BME280;63097;51.872;4.460;2023-02-13T09:06:47;103921.41;;;7.10;85.35
74594;BME280;63097;51.872;4.460;2023-02-13T09:09:12;103901.88;;;7.29;85.14
74594;BME280;63097;51.872;4.460;2023-02-13T09:11:38;103911.47;;;7.35;84.57
74594;BME280;63097;51.872;4.460;2023-02-13T09:14:03;103910.94;;;7.49;84.23
74594;BME280;63097;51.872;4.460;2023-02-13T09:16:28;103911.63;;;7.68;83.63
74594;BME280;63097;51.872;4.460;2023-02-13T09:18:53;103917.00;;;7.70;83.42
74594;BME280;63097;51.872;4.460;2023-02-13T09:21:20;103912.03;;;7.73;83.00
74594;BME280;63097;51.872;4.460;2023-02-13T09:23:46;103911.38;;;7.79;82.40
74594;BME280;63097;51.872;4.460;2023-02-13T09:26:13;103905.59;;;7.90;82.29
74594;BME280;63097;51.872;4.460;2023-02-13T09:28:39;103911.13;;;7.90;81.84
74594;BME280;63097;51.872;4.460;2023-02-13T09:31:10;103910.34;;;7.98;81.89
74594;BME280;63097;51.872;4.460;2023-02-13T09:33:36;103917.63;;;8.42;82.16
74594;BME280;63097;51.872;4.460;2023-02-13T09:36:10;103913.59;;;8.70;79.96
74594;BME280;63097;51.872;4.460;2023-02-13T09:38:36;103915.34;;;8.79;81.53
74594;BME280;63097;51.872;4.460;2023-02-13T09:41:10;103915.75;;;8.84;79.10
74594;BME280;63097;51.872;4.460;2023-02-13T09:43:52;103908.09;;;9.36;78.77
74594;BME280;63097;51.872;4.460;2023-02-13T09:46:33;103916.22;;;9.13;78.52
74594;BME280;63097;51.872;4.460;2023-02-13T09:49:04;103907.41;;;9.42;76.28
74594;BME280;63097;51.872;4.460;2023-02-13T09:51:31;103910.72;;;9.46;76.87
74594;BME280;63097;51.872;4.460;2023-02-13T09:54:03;103903.44;;;9.45;77.27
74594;BME280;63097;51.872;4.460;2023-02-13T09:56:46;103909.13;;;9.43;75.95
74594;BME280;63097;51.872;4.460;2023-02-13T10:05:03;103903.25;;;10.02;74.33
74594;BME280;63097;51.872;4.460;2023-02-13T10:18:15;103910.75;;;10.34;72.12
74594;BME280;63097;51.872;4.460;2023-02-13T10:20:45;103906.97;;;10.74;70.41
74594;BME280;63097;51.872;4.460;2023-02-13T10:23:32;103905.88;;;10.36;71.35
74594;BME280;63097;51.872;4.460;2023-02-13T10:26:06;103903.69;;;10.62;71.60
74594;BME280;63097;51.872;4.460;2023-02-13T10:28:36;103903.91;;;10.45;71.15
74594;BME280;63097;51.872;4.460;2023-02-13T10:31:10;103893.72;;;10.76;71.60
74594;BME280;63097;51.872;4.460;2023-02-13T10:33:57;103896.00;;;10.80;70.89
74594;BME280;63097;51.872;4.460;2023-02-13T10:36:29;103896.94;;;10.95;70.02
74594;BME280;63097;51.872;4.460;2023-02-13T10:39:24;103895.28;;;11.40;67.25
74594;BME280;63097;51.872;4.460;2023-02-13T10:42:13;103888.03;;;10.69;68.61
74594;BME280;63097;51.872;4.460;2023-02-13T10:44:57;103885.00;;;10.79;67.99
74594;BME280;63097;51.872;4.460;2023-02-13T10:52:53;103877.91;;;10.76;69.20
74594;BME280;63097;51.872;4.460;2023-02-13T10:55:48;103878.44;;;11.33;67.89
74594;BME280;63097;51.872;4.460;2023-02-13T10:58:21;103884.63;;;11.43;68.93
74594;BME280;63097;51.872;4.460;2023-02-13T11:01:18;103875.34;;;11.96;65.45
74594;BME280;63097;51.872;4.460;2023-02-13T11:03:48;103879.31;;;12.16;64.56
74594;BME280;63097;51.872;4.460;2023-02-13T11:06:24;103874.63;;;12.17;65.59
74594;BME280;63097;51.872;4.460;2023-02-13T11:08:49;103881.38;;;12.51;64.60
74594;BME280;63097;51.872;4.460;2023-02-13T11:11:36;103881.84;;;13.13;63.06
74594;BME280;63097;51.872;4.460;2023-02-13T11:14:19;103869.47;;;13.79;59.97
74594;BME280;63097;51.872;4.460;2023-02-13T11:17:02;103870.22;;;14.15;58.77
74594;BME280;63097;51.872;4.460;2023-02-13T11:19:38;103869.13;;;14.78;56.43
74594;BME280;63097;51.872;4.460;2023-02-13T11:22:07;103871.50;;;14.40;56.56
74594;BME280;63097;51.872;4.460;2023-02-13T11:24:35;103853.81;;;15.28;55.09
74594;BME280;63097;51.872;4.460;2023-02-13T11:27:08;103852.53;;;14.76;55.57
74594;BME280;63097;51.872;4.460;2023-02-13T11:29:36;103849.50;;;15.25;54.93
74594;BME280;63097;51.872;4.460;2023-02-13T11:32:16;103850.34;;;15.26;54.15
74594;BME280;63097;51.872;4.460;2023-02-13T11:34:42;103849.41;;;15.05;54.12
74594;BME280;63097;51.872;4.460;2023-02-13T11:37:20;103842.38;;;15.23;54.39
74594;BME280;63097;51.872;4.460;2023-02-13T11:39:48;103845.94;;;15.77;53.34
74594;BME280;63097;51.872;4.460;2023-02-13T11:42:15;103852.19;;;15.53;54.26
74594;BME280;63097;51.872;4.460;2023-02-13T11:44:43;103842.25;;;16.55;49.75
74594;BME280;63097;51.872;4.460;2023-02-13T11:47:12;103833.88;;;16.09;51.51
74594;BME280;63097;51.872;4.460;2023-02-13T11:49:44;103828.44;;;15.55;51.91
74594;BME280;63097;51.872;4.460;2023-02-13T11:52:22;103831.94;;;15.64;53.17
74594;BME280;63097;51.872;4.460;2023-02-13T11:54:59;103831.72;;;16.11;51.50
74594;BME280;63097;51.872;4.460;2023-02-13T11:59:59;103827.81;;;16.19;49.81
74594;BME280;63097;51.872;4.460;2023-02-13T12:05:25;103827.16;;;16.10;52.20
74594;BME280;63097;51.872;4.460;2023-02-13T12:07:51;103828.91;;;15.65;51.54
74594;BME280;63097;51.872;4.460;2023-02-13T12:10:21;103830.38;;;15.68;51.15
74594;BME280;63097;51.872;4.460;2023-02-13T12:13:08;103825.50;;;16.79;50.60
74594;BME280;63097;51.872;4.460;2023-02-13T12:15:38;103824.88;;;16.77;49.35
74594;BME280;63097;51.872;4.460;2023-02-13T12:18:31;103837.69;;;17.11;47.90
74594;BME280;63097;51.872;4.460;2023-02-13T12:31:37;103817.19;;;16.53;49.56
74594;BME280;63097;51.872;4.460;2023-02-13T12:37:09;103806.63;;;17.31;47.37
74594;BME280;63097;51.872;4.460;2023-02-13T12:39:41;103808.19;;;17.27;46.57
74594;BME280;63097;51.872;4.460;2023-02-13T12:45:10;103799.03;;;18.36;44.88
74594;BME280;63097;51.872;4.460;2023-02-13T12:47:58;103796.09;;;17.57;45.33
74594;BME280;63097;51.872;4.460;2023-02-13T13:07:09;103772.69;;;18.67;43.85
74594;BME280;63097;51.872;4.460;2023-02-13T13:25:32;103767.75;;;19.40;41.55
74594;BME280;63097;51.872;4.460;2023-02-13T13:28:08;103768.72;;;19.86;40.47
74594;BME280;63097;51.872;4.460;2023-02-13T13:30:38;103766.81;;;18.68;42.36
74594;BME280;63097;51.872;4.460;2023-02-13T13:33:16;103766.53;;;19.18;41.94
74594;BME280;63097;51.872;4.460;2023-02-13T13:41:13;103758.88;;;19.89;40.65
74594;BME280;63097;51.872;4.460;2023-02-13T13:52:29;103743.75;;;18.35;42.38
74594;BME280;63097;51.872;4.460;2023-02-13T13:54:56;103736.13;;;17.81;45.38
74594;BME280;63097;51.872;4.460;2023-02-13T13:57:24;103732.13;;;18.50;41.74
74594;BME280;63097;51.872;4.460;2023-02-13T13:59:59;103728.09;;;18.75;41.84
74594;BME280;63097;51.872;4.460;2023-02-13T14:07:39;103726.44;;;19.57;40.55
74594;BME280;63097;51.872;4.460;2023-02-13T14:10:05;103715.50;;;20.41;38.05
74594;BME280;63097;51.872;4.460;2023-02-13T14:12:37;103717.34;;;20.47;38.62
74594;BME280;63097;51.872;4.460;2023-02-13T14:25:41;103712.56;;;18.55;42.40
74594;BME280;63097;51.872;4.460;2023-02-13T14:28:23;103710.66;;;18.31;43.51
74594;BME280;63097;51.872;4.460;2023-02-13T14:30:51;103697.53;;;18.43;43.06
74594;BME280;63097;51.872;4.460;2023-02-13T14:33:29;103706.94;;;17.51;44.07
74594;BME280;63097;51.872;4.460;2023-02-13T14:36:08;103701.28;;;18.37;43.95
74594;BME280;63097;51.872;4.460;2023-02-13T14:38:43;103696.41;;;18.62;42.50
74594;BME280;63097;51.872;4.460;2023-02-13T14:41:41;103700.25;;;19.08;41.41
74594;BME280;63097;51.872;4.460;2023-02-13T14:44:15;103692.97;;;19.19;41.70
74594;BME280;63097;51.872;4.460;2023-02-13T14:46:43;103697.59;;;18.36;42.54
74594;BME280;63097;51.872;4.460;2023-02-13T14:51:49;103693.28;;;19.11;41.60
74594;BME280;63097;51.872;4.460;2023-02-13T14:54:33;103692.34;;;18.58;42.47
74594;BME280;63097;51.872;4.460;2023-02-13T14:57:14;103695.72;;;19.37;40.83
74594;BME280;63097;51.872;4.460;2023-02-13T14:59:44;103686.88;;;18.45;43.04
74594;BME280;63097;51.872;4.460;2023-02-13T15:02:30;103683.78;;;18.28;42.79
74594;BME280;63097;51.872;4.460;2023-02-13T15:05:06;103681.75;;;18.35;43.00
74594;BME280;63097;51.872;4.460;2023-02-13T15:07:35;103675.09;;;18.30;43.76
74594;BME280;63097;51.872;4.460;2023-02-13T15:12:42;103677.91;;;18.66;42.89
74594;BME280;63097;51.872;4.460;2023-02-13T15:15:23;103678.66;;;18.07;44.56
74594;BME280;63097;51.872;4.460;2023-02-13T15:17:49;103675.81;;;17.15;45.91
74594;BME280;63097;51.872;4.460;2023-02-13T15:20:23;103682.78;;;17.37;46.08
74594;BME280;63097;51.872;4.460;2023-02-13T15:22:48;103669.25;;;16.96;46.69
74594;BME280;63097;51.872;4.460;2023-02-13T15:25:31;103670.75;;;16.10;48.42
74594;BME280;63097;51.872;4.460;2023-02-13T15:27:58;103671.31;;;15.16;51.28